Time;durP1;ratioP1;P1;durP2;ratioP2;P2;SDS_P1;SDS_P2;PMS_P1;PMS_P2;Temp;Humidity;BMP_temperature;BMP_pressure;BME280_temperature;BME280_humidity;BME280_pressure;Samples;Min_cycle;Max_cycle;Signal;HPM_P1;HPM_P2
2022/10/24 00:02:06;;;;;;;1999.90;999.90;;;;;;;17.83;100.00;95308.63;5093622;28;20175;-74
2022/10/24 00:04:35;;;;;;;1999.90;999.90;;;;;;;17.84;100.00;95310.16;5093590;28;20218;-75
2022/10/24 00:07:00;;;;;;;1999.90;999.90;;;;;;;17.92;100.00;95319.75;5093563;28;20196;-65
2022/10/24 00:09:25;;;;;;;1999.90;999.90;;;;;;;17.83;100.00;95316.94;5093611;28;20179;-74
2022/10/24 00:11:51;;;;;;;1999.90;999.90;;;;;;;17.79;100.00;95317.06;5093791;28;20232;-70
2022/10/24 00:14:16;;;;;;;1999.90;999.90;;;;;;;17.78;100.00;95320.28;5093648;28;20223;-71
2022/10/24 00:16:42;;;;;;;1999.90;999.90;;;;;;;17.80;100.00;95326.13;5094104;28;20173;-71
2022/10/24 00:19:07;;;;;;;1999.90;999.90;;;;;;;17.77;100.00;95322.25;5093938;28;20177;-71
2022/10/24 00:21:32;;;;;;;1999.90;999.90;;;;;;;17.68;100.00;95310.38;5093455;28;20180;-70
2022/10/24 00:23:58;;;;;;;1999.90;999.90;;;;;;;17.66;100.00;95307.31;5096767;28;20215;-70
2022/10/24 00:26:23;;;;;;;1999.90;999.90;;;;;;;17.62;100.00;95306.66;5098025;28;20218;-72
2022/10/24 00:28:48;;;;;;;1999.90;999.90;;;;;;;17.57;100.00;95310.00;5098102;28;20173;-59
2022/10/24 00:31:17;;;;;;;1999.90;999.90;;;;;;;17.54;100.00;95321.94;5097941;28;20204;-59
2022/10/24 00:33:44;;;;;;;1999.90;999.90;;;;;;;17.55;100.00;95340.84;5097861;28;20168;-60
2022/10/24 00:36:18;;;;;;;1999.90;999.90;;;;;;;17.49;100.00;95352.91;5097508;28;20232;-60
2022/10/24 00:38:44;;;;;;;1999.90;999.90;;;;;;;17.15;100.00;95295.69;5098066;28;20180;-59
2022/10/24 00:41:14;;;;;;;1999.90;999.90;;;;;;;16.66;100.00;95175.28;5097435;28;20536;-60
2022/10/24 00:43:40;;;;;;;1999.90;999.90;;;;;;;16.32;100.00;95041.75;5097167;28;20183;-59
2022/10/24 00:46:05;;;;;;;1999.90;999.90;;;;;;;16.08;100.00;94839.56;5096944;28;20173;-59
2022/10/24 00:48:35;;;;;;;1999.90;999.90;;;;;;;15.88;100.00;94640.84;5097178;28;20211;-59
2022/10/24 00:51:20;;;;;;;1999.90;999.90;;;;;;;15.72;100.00;94461.41;5097751;28;20222;-58
2022/10/24 00:53:49;;;;;;;1999.90;999.90;;;;;;;15.61;100.00;94291.22;5097923;28;20177;-58
2022/10/24 00:56:17;;;;;;;1999.90;999.90;;;;;;;15.49;100.00;94187.59;5097789;28;20213;-58
2022/10/24 00:58:43;;;;;;;1999.90;999.90;;;;;;;15.38;100.00;94131.53;5097477;28;20180;-58
2022/10/24 01:01:09;;;;;;;1999.90;999.90;;;;;;;15.33;100.00;93943.06;5097531;28;20177;-58
2022/10/24 01:03:35;;;;;;;1999.90;999.90;;;;;;;15.31;100.00;93702.72;5096958;28;20204;-62
2022/10/24 01:06:06;;;;;;;1999.90;999.90;;;;;;;15.25;100.00;93644.09;5096814;28;20173;-62
2022/10/24 01:08:43;;;;;;;1999.90;999.90;;;;;;;15.17;100.00;93495.25;5097240;28;20208;-63
2022/10/24 01:11:21;;;;;;;1999.90;999.90;;;;;;;15.11;100.00;93491.66;5096658;28;20176;-63
2022/10/24 01:14:01;;;;;;;1999.90;999.90;;;;;;;15.06;100.00;93525.31;5096379;28;20181;-63
2022/10/24 01:16:36;;;;;;;1999.90;999.90;;;;;;;15.00;100.00;93631.69;5096471;28;20215;-63
2022/10/24 01:19:23;;;;;;;1999.90;999.90;;;;;;;14.96;100.00;93598.13;5096253;28;20172;-63
2022/10/24 01:21:56;;;;;;;1999.90;999.90;;;;;;;14.97;100.00;93585.91;5096397;28;20263;-56
2022/10/24 01:24:25;;;;;;;1999.90;999.90;;;;;;;14.96;100.00;93595.38;5097217;28;20176;-62
2022/10/24 01:26:55;;;;;;;1999.90;999.90;;;;;;;14.92;100.00;93610.56;5096239;28;20235;-62
2022/10/24 01:29:46;;;;;;;1999.90;999.90;;;;;;;14.93;100.00;93599.09;5096308;28;20199;-63
2022/10/24 01:32:43;;;;;;;1999.90;999.90;;;;;;;14.87;100.00;93581.75;5097164;28;20245;-63
2022/10/24 01:35:22;;;;;;;1999.90;999.90;;;;;;;14.85;100.00;93564.97;5097022;28;20173;-63
2022/10/24 01:38:10;;;;;;;1999.90;999.90;;;;;;;14.81;100.00;93578.16;5096861;28;20204;-62
2022/10/24 01:40:47;;;;;;;1999.90;999.90;;;;;;;14.79;100.00;93553.13;5096989;28;20180;-75
2022/10/24 01:43:16;;;;;;;1999.90;999.90;;;;;;;14.80;100.00;93557.41;5096710;28;20183;-63
2022/10/24 01:45:47;;;;;;;1999.90;999.90;;;;;;;14.78;100.00;93559.84;5096154;28;20188;-62
2022/10/24 01:48:19;;;;;;;1999.90;999.90;;;;;;;14.78;100.00;93573.59;5095857;28;20204;-63
2022/10/24 01:50:47;;;;;;;1999.90;999.90;;;;;;;14.75;100.00;93560.81;5096474;28;20211;-62
2022/10/24 01:53:14;;;;;;;1999.90;999.90;;;;;;;14.75;100.00;93571.78;5095950;28;20208;-62
2022/10/24 01:55:41;;;;;;;1999.90;999.90;;;;;;;14.73;100.00;93577.03;5095838;28;20213;-61
2022/10/24 01:58:07;;;;;;;1999.90;999.90;;;;;;;14.74;100.00;93562.03;5095895;28;20176;-58
2022/10/24 02:00:32;;;;;;;1999.90;999.90;;;;;;;14.73;100.00;93560.53;5096453;28;20226;-62
2022/10/24 02:03:03;;;;;;;1999.90;999.90;;;;;;;14.68;100.00;93541.22;5095993;28;20177;-61
2022/10/24 02:05:35;;;;;;;1999.90;999.90;;;;;;;14.70;100.00;93534.00;5096563;28;20227;-62
2022/10/24 02:08:06;;;;;;;1999.90;999.90;;;;;;;14.72;100.00;93520.53;5095783;28;20295;-61
2022/10/24 02:10:44;;;;;;;1999.90;999.90;;;;;;;14.71;100.00;93521.75;5096224;28;20184;-63
2022/10/24 02:13:17;;;;;;;1999.90;999.90;;;;;;;14.72;100.00;93503.31;5096242;28;20168;-61
2022/10/24 02:15:48;;;;;;;1999.90;999.90;;;;;;;14.75;100.00;93500.34;5096118;28;20165;-70
2022/10/24 02:18:14;;;;;;;1999.90;999.90;;;;;;;14.74;100.00;93490.59;5096070;28;20210;-62
2022/10/24 02:20:57;;;;;;;1999.90;999.90;;;;;;;14.71;100.00;93505.28;5095563;28;20222;-57
2022/10/24 02:23:48;;;;;;;1999.90;999.90;;;;;;;14.64;100.00;93480.94;5095016;28;20235;-57
2022/10/24 02:26:23;;;;;;;1999.90;999.90;;;;;;;14.63;100.00;93462.94;5095673;28;20168;-56
2022/10/24 02:28:52;;;;;;;1999.90;999.90;;;;;;;14.60;100.00;93458.41;5096214;28;20176;-57
2022/10/24 02:31:21;;;;;;;1999.90;999.90;;;;;;;14.59;100.00;93462.38;5095540;28;20230;-57
2022/10/24 02:33:49;;;;;;;1999.90;999.90;;;;;;;14.63;100.00;93445.69;5096249;28;20173;-55
2022/10/24 02:36:19;;;;;;;1999.90;999.90;;;;;;;14.61;100.00;93437.19;5095483;28;20268;-57
2022/10/24 02:38:47;;;;;;;1999.90;999.90;;;;;;;14.56;100.00;93430.38;5095058;28;20180;-59
2022/10/24 02:41:19;;;;;;;1999.90;999.90;;;;;;;14.58;100.00;93433.41;5095698;28;20181;-60
2022/10/24 02:43:45;;;;;;;1999.90;999.90;;;;;;;14.57;100.00;93431.88;5094913;28;20176;-59
2022/10/24 02:46:13;;;;;;;1999.90;999.90;;;;;;;14.54;100.00;93426.59;5094461;28;20180;-61
2022/10/24 02:48:45;;;;;;;1999.90;999.90;;;;;;;14.57;100.00;93422.88;5094903;28;20176;-60
2022/10/24 02:51:13;;;;;;;1999.90;999.90;;;;;;;14.57;100.00;93409.91;5095006;28;20183;-60
2022/10/24 02:53:39;;;;;;;1999.90;999.90;;;;;;;14.57;100.00;93415.38;5095439;28;20183;-60
2022/10/24 02:56:04;;;;;;;1999.90;999.90;;;;;;;14.59;100.00;93437.66;5094984;28;20184;-70
2022/10/24 02:58:30;;;;;;;1999.90;999.90;;;;;;;14.57;100.00;93429.13;5094627;28;20180;-69
2022/10/24 03:00:55;;;;;;;1999.90;999.90;;;;;;;14.56;100.00;93424.09;5094509;28;20264;-72
2022/10/24 03:03:21;;;;;;;1999.90;999.90;;;;;;;14.57;100.00;93418.13;5094211;28;20172;-70
2022/10/24 03:05:46;;;;;;;1999.90;999.90;;;;;;;14.62;100.00;93412.00;5094768;28;20169;-70
2022/10/24 03:08:12;;;;;;;1999.90;999.90;;;;;;;14.63;100.00;93418.22;5094854;28;20279;-73
2022/10/24 03:10:37;;;;;;;1999.90;999.90;;;;;;;14.63;100.00;93427.22;5094394;28;20179;-58
2022/10/24 03:13:03;;;;;;;1999.90;999.90;;;;;;;14.66;100.00;93426.28;5095445;28;20172;-60
2022/10/24 03:15:29;;;;;;;1999.90;999.90;;;;;;;14.68;100.00;93440.28;5094519;28;20173;-71
2022/10/24 03:17:54;;;;;;;1999.90;999.90;;;;;;;14.75;100.00;93441.91;5094073;28;20184;-70
2022/10/24 03:20:19;;;;;;;1999.90;999.90;;;;;;;14.74;100.00;93446.63;5094209;28;20172;-71
2022/10/24 03:22:45;;;;;;;1999.90;999.90;;;;;;;14.76;100.00;93455.16;5093995;28;20247;-70
2022/10/24 03:25:10;;;;;;;1999.90;999.90;;;;;;;14.75;100.00;93458.38;5094221;28;20205;-73
2022/10/24 03:27:36;;;;;;;1999.90;999.90;;;;;;;14.67;100.00;93449.75;5094865;28;20196;-69
2022/10/24 03:30:02;;;;;;;1999.90;999.90;;;;;;;14.72;100.00;93454.56;5094236;28;20177;-71
2022/10/24 03:32:28;;;;;;;1999.90;999.90;;;;;;;14.72;100.00;93449.09;5094096;28;20169;-57
2022/10/24 03:34:54;;;;;;;1999.90;999.90;;;;;;;14.73;100.00;93456.13;5094126;28;20180;-58
2022/10/24 03:37:19;;;;;;;1999.90;999.90;;;;;;;14.74;100.00;93465.09;5093776;28;20200;-56
2022/10/24 03:39:44;;;;;;;1999.90;999.90;;;;;;;14.77;100.00;93470.41;5094306;28;20169;-58
2022/10/24 03:42:10;;;;;;;1999.90;999.90;;;;;;;14.79;100.00;93464.44;5094742;28;20247;-58
2022/10/24 03:44:35;;;;;;;1999.90;999.90;;;;;;;14.80;100.00;93477.72;5094192;28;20169;-58
2022/10/24 03:47:01;;;;;;;1999.90;999.90;;;;;;;14.82;100.00;93472.47;5094586;28;20200;-58
2022/10/24 03:49:26;;;;;;;1999.90;999.90;;;;;;;14.84;100.00;93483.75;5093924;28;20234;-63
2022/10/24 03:51:52;;;;;;;1999.90;999.90;;;;;;;14.87;100.00;93482.03;5093921;28;20172;-62
2022/10/24 03:54:17;;;;;;;1999.90;999.90;;;;;;;14.89;100.00;93485.81;5094095;28;20176;-62
2022/10/24 03:56:44;;;;;;;1999.90;999.90;;;;;;;14.86;100.00;93492.28;5093436;28;20582;-62
2022/10/24 03:59:09;;;;;;;1999.90;999.90;;;;;;;14.79;100.00;93498.16;5094713;28;20172;-62
2022/10/24 04:01:35;;;;;;;1999.90;999.90;;;;;;;14.88;100.00;93502.78;5093707;28;20169;-63
2022/10/24 04:04:00;;;;;;;1999.90;999.90;;;;;;;14.94;100.00;93515.38;5094031;28;20220;-62
2022/10/24 04:06:26;;;;;;;1999.90;999.90;;;;;;;14.99;100.00;93527.69;5094166;28;20195;-71
2022/10/24 04:08:51;;;;;;;1999.90;999.90;;;;;;;14.99;100.00;93544.19;5094022;28;20177;-62
2022/10/24 04:11:16;;;;;;;1999.90;999.90;;;;;;;14.99;100.00;93544.19;5093355;28;20166;-62
2022/10/24 04:13:42;;;;;;;1999.90;999.90;;;;;;;14.96;100.00;93556.91;5094131;28;20207;-62
2022/10/24 04:16:07;;;;;;;1999.90;999.90;;;;;;;14.94;100.00;93559.34;5094576;28;20169;-62
2022/10/24 04:18:33;;;;;;;1999.90;999.90;;;;;;;14.92;100.00;93556.34;5093829;28;20217;-62
2022/10/24 04:20:58;;;;;;;1999.90;999.90;;;;;;;14.94;100.00;93556.59;5093431;28;20177;-62
2022/10/24 04:23:25;;;;;;;1999.90;999.90;;;;;;;14.96;100.00;93567.91;5093536;28;20227;-63
2022/10/24 04:25:52;;;;;;;1999.90;999.90;;;;;;;14.98;100.00;93570.94;5094051;28;20169;-58
2022/10/24 04:28:18;;;;;;;1999.90;999.90;;;;;;;15.00;100.00;93573.97;5093493;28;20292;-58
2022/10/24 04:30:43;;;;;;;1999.90;999.90;;;;;;;15.02;100.00;93588.00;5093264;28;20629;-58
2022/10/24 04:33:09;;;;;;;1999.90;999.90;;;;;;;15.01;100.00;93597.47;5093348;28;20168;-60
2022/10/24 04:35:34;;;;;;;1999.90;999.90;;;;;;;15.00;100.00;93606.94;5093652;28;20176;-58
2022/10/24 04:38:00;;;;;;;1999.90;999.90;;;;;;;14.98;100.00;93609.44;5093696;28;20176;-57
2022/10/24 04:40:25;;;;;;;1999.90;999.90;;;;;;;14.97;100.00;93618.88;5093441;28;20256;-58
2022/10/24 04:42:51;;;;;;;1999.90;999.90;;;;;;;14.95;100.00;93618.63;5093438;28;20260;-63
2022/10/24 04:45:16;;;;;;;1999.90;999.90;;;;;;;14.91;100.00;93609.81;5093239;28;20177;-62
2022/10/24 04:47:42;;;;;;;1999.90;999.90;;;;;;;14.85;100.00;93611.69;5092977;28;20207;-58
2022/10/24 04:50:08;;;;;;;1999.90;999.90;;;;;;;14.80;100.00;93604.13;5093558;28;20172;-58
2022/10/24 04:52:33;;;;;;;1999.90;999.90;;;;;;;14.78;100.00;93590.09;5093190;28;20177;-58
2022/10/24 04:54:58;;;;;;;1999.90;999.90;;;;;;;14.74;100.00;93578.53;5092890;28;20169;-58
2022/10/24 04:57:24;;;;;;;1999.90;999.90;;;;;;;14.72;100.00;93580.25;5093106;28;20177;-59
2022/10/24 04:59:49;;;;;;;1999.90;999.90;;;;;;;14.75;100.00;93560.06;5093116;28;20267;-58
2022/10/24 05:02:15;;;;;;;1999.90;999.90;;;;;;;14.74;100.00;93555.78;5093084;28;20173;-58
2022/10/24 05:04:40;;;;;;;1999.90;999.90;;;;;;;14.74;100.00;93556.53;5093199;28;20188;-57
2022/10/24 05:07:05;;;;;;;1999.90;999.90;;;;;;;14.72;100.00;93548.00;5093078;28;20227;-57
2022/10/24 05:09:31;;;;;;;1999.90;999.90;;;;;;;14.70;100.00;93538.72;5095174;28;20176;-58
2022/10/24 05:11:57;;;;;;;1999.90;999.90;;;;;;;14.71;100.00;93538.25;5097027;28;20172;-58
2022/10/24 05:14:23;;;;;;;1999.90;999.90;;;;;;;14.70;100.00;93512.00;5097207;28;20168;-58
2022/10/24 05:16:48;;;;;;;1999.90;999.90;;;;;;;14.71;100.00;93508.03;5097136;28;20240;-58
2022/10/24 05:19:15;;;;;;;1999.90;999.90;;;;;;;14.73;100.00;93511.06;5096781;28;20233;-58
2022/10/24 05:21:41;;;;;;;1999.90;999.90;;;;;;;14.72;100.00;93512.28;5097030;28;20226;-64
2022/10/24 05:24:06;;;;;;;1999.90;999.90;;;;;;;14.75;100.00;93505.84;5097387;28;20176;-58
2022/10/24 05:26:31;;;;;;;1999.90;999.90;;;;;;;14.77;100.00;93505.38;5096373;28;20212;-59
2022/10/24 05:28:57;;;;;;;1999.90;999.90;;;;;;;14.78;100.00;93502.16;5096416;28;20183;-59
2022/10/24 05:31:22;;;;;;;1999.90;999.90;;;;;;;14.77;100.00;93517.13;5096433;28;20169;-59
2022/10/24 05:33:48;;;;;;;1999.90;999.90;;;;;;;14.78;100.00;93515.88;5096984;28;20176;-59
2022/10/24 05:36:13;;;;;;;1999.90;999.90;;;;;;;14.79;100.00;93522.88;5096315;28;20169;-59
2022/10/24 05:38:38;;;;;;;1999.90;999.90;;;;;;;14.78;100.00;93518.63;5095916;28;20176;-60
2022/10/24 05:41:04;;;;;;;1999.90;999.90;;;;;;;14.82;100.00;93530.19;5096407;28;20200;-63
2022/10/24 05:43:29;;;;;;;1999.90;999.90;;;;;;;14.83;100.00;93537.19;5096122;28;20169;-63
2022/10/24 05:45:54;;;;;;;1999.90;999.90;;;;;;;14.81;100.00;93533.41;5096479;28;20180;-62
2022/10/24 05:48:20;;;;;;;1999.90;999.90;;;;;;;14.84;100.00;93533.22;5095783;28;20334;-62
2022/10/24 05:50:45;;;;;;;1999.90;999.90;;;;;;;14.82;100.00;93538.44;5096177;28;20177;-62
2022/10/24 05:53:11;;;;;;;1999.90;999.90;;;;;;;14.82;100.00;93543.94;5096032;28;20177;-64
2022/10/24 05:55:37;;;;;;;1999.90;999.90;;;;;;;14.78;100.00;93562.59;5096104;28;20181;-63
2022/10/24 05:58:03;;;;;;;1999.90;999.90;;;;;;;14.79;100.00;93555.13;5096629;28;20185;-70
2022/10/24 06:00:28;;;;;;;1999.90;999.90;;;;;;;14.81;100.00;93561.66;5096448;28;20198;-69
2022/10/24 06:02:54;;;;;;;1999.90;999.90;;;;;;;14.79;100.00;93577.84;5095831;28;20184;-69
2022/10/24 06:05:19;;;;;;;1999.90;999.90;;;;;;;14.79;100.00;93577.84;5095864;28;20192;-70
2022/10/24 06:07:45;;;;;;;1999.90;999.90;;;;;;;14.79;100.00;93586.09;5096163;28;20201;-68
2022/10/24 06:10:11;;;;;;;1999.90;999.90;;;;;;;14.81;100.00;93599.38;5096443;28;20199;-66
2022/10/24 06:12:37;;;;;;;1999.90;999.90;;;;;;;14.84;100.00;93598.44;5096288;28;20180;-68
2022/10/24 06:15:05;;;;;;;1999.90;999.90;;;;;;;14.87;100.00;93603.75;5095912;28;20625;-58
2022/10/24 06:17:31;;;;;;;1999.90;999.90;;;;;;;14.89;100.00;93615.00;5095232;28;20184;-59
2022/10/24 06:19:56;;;;;;;1999.90;999.90;;;;;;;14.92;100.00;93616.81;5094669;28;20180;-60
2022/10/24 06:22:26;;;;;;;1999.90;999.90;;;;;;;14.90;100.00;93616.53;5094718;28;20216;-62
2022/10/24 06:24:52;;;;;;;1999.90;999.90;;;;;;;14.89;100.00;93612.25;5095481;28;20230;-61
2022/10/24 06:27:17;;;;;;;1999.90;999.90;;;;;;;14.89;100.00;93623.25;5094903;28;20199;-61
2022/10/24 06:29:43;;;;;;;1999.90;999.90;;;;;;;14.90;100.00;93627.50;5095015;28;20176;-61
2022/10/24 06:32:08;;;;;;;1999.90;999.90;;;;;;;14.91;100.00;93626.31;5095255;28;20172;-60
2022/10/24 06:34:34;;;;;;;1999.90;999.90;;;;;;;14.93;100.00;93640.31;5095539;28;20172;-58
2022/10/24 06:37:00;;;;;;;1999.90;999.90;;;;;;;14.93;100.00;93643.06;5095097;28;20213;-61
2022/10/24 06:39:26;;;;;;;1999.90;999.90;;;;;;;14.93;100.00;93640.31;5095516;28;20169;-61
2022/10/24 06:41:51;;;;;;;1999.90;999.90;;;;;;;14.94;100.00;93652.81;5095207;28;20176;-62
2022/10/24 06:44:16;;;;;;;1999.90;999.90;;;;;;;14.96;100.00;93649.59;5095528;28;20171;-61
2022/10/24 06:46:42;;;;;;;1999.90;999.90;;;;;;;14.95;100.00;93643.38;5095221;28;20215;-62
2022/10/24 06:49:07;;;;;;;1999.90;999.90;;;;;;;14.94;100.00;93633.56;5095422;28;20169;-62
2022/10/24 06:51:32;;;;;;;1999.90;999.90;;;;;;;14.95;100.00;93629.63;5094676;28;20173;-67
2022/10/24 06:53:58;;;;;;;1999.90;999.90;;;;;;;14.95;100.00;93613.13;5094884;28;20260;-63
2022/10/24 06:56:24;;;;;;;1999.90;999.90;;;;;;;14.91;100.00;93615.31;5094649;28;20169;-68
2022/10/24 06:58:49;;;;;;;1999.90;999.90;;;;;;;14.92;100.00;93627.81;5094965;28;20169;-67
2022/10/24 07:01:20;;;;;;;1999.90;999.90;;;;;;;14.89;100.00;93644.47;5094774;28;20172;-68
2022/10/24 07:03:46;;;;;;;1999.90;999.90;;;;;;;14.98;100.00;93636.91;5094392;28;20283;-68
2022/10/24 07:06:15;;;;;;;1999.90;999.90;;;;;;;14.98;100.00;93642.41;5094668;28;20563;-68
2022/10/24 07:08:40;;;;;;;1999.90;999.90;;;;;;;14.93;100.00;93651.31;5094830;28;20173;-67
2022/10/24 07:11:06;;;;;;;1999.90;999.90;;;;;;;14.95;100.00;93645.34;5094612;28;20183;-67
2022/10/24 07:13:31;;;;;;;1999.90;999.90;;;;;;;14.97;100.00;93651.88;5094624;28;20169;-59
2022/10/24 07:15:57;;;;;;;1999.90;999.90;;;;;;;15.03;100.00;93647.25;5094448;28;20298;-58
2022/10/24 07:18:22;;;;;;;1999.90;999.90;;;;;;;15.00;100.00;93656.44;5095020;28;20172;-58
2022/10/24 07:20:47;;;;;;;1999.90;999.90;;;;;;;15.00;100.00;93650.94;5094254;28;20200;-58
2022/10/24 07:23:13;;;;;;;1999.90;999.90;;;;;;;15.03;100.00;93654.72;5094171;28;20224;-60
2022/10/24 07:25:39;;;;;;;1999.90;999.90;;;;;;;15.03;100.00;93666.50;5094686;28;20173;-58
2022/10/24 07:28:06;;;;;;;1999.90;999.90;;;;;;;15.10;100.00;93677.13;5094206;28;20212;-58
2022/10/24 07:30:32;;;;;;;1999.90;999.90;;;;;;;15.11;100.00;93675.88;5094803;28;20202;-62
2022/10/24 07:32:58;;;;;;;1999.90;999.90;;;;;;;15.15;100.00;93687.44;5094327;28;20187;-62
2022/10/24 07:35:23;;;;;;;1999.90;999.90;;;;;;;15.15;100.00;93679.19;5094046;28;20177;-62
2022/10/24 07:37:49;;;;;;;1999.90;999.90;;;;;;;15.16;100.00;93674.47;5094363;28;20216;-62
2022/10/24 07:40:15;;;;;;;1999.90;999.90;;;;;;;15.19;100.00;93674.25;5094737;28;20211;-62
2022/10/24 07:42:41;;;;;;;1999.90;999.90;;;;;;;15.23;100.00;93672.06;5094259;28;20181;-61
2022/10/24 07:45:07;;;;;;;1999.90;999.90;;;;;;;15.26;100.00;93679.38;5093970;28;20215;-62
2022/10/24 07:47:32;;;;;;;1999.90;999.90;;;;;;;15.26;100.00;93673.88;5094785;28;20197;-61
2022/10/24 07:49:58;;;;;;;1999.90;999.90;;;;;;;15.26;100.00;93668.38;5094469;28;20183;-60
2022/10/24 07:52:24;;;;;;;1999.90;999.90;;;;;;;15.23;100.00;93674.09;5093951;28;20175;-60
2022/10/24 07:54:51;;;;;;;1999.90;999.90;;;;;;;15.19;100.00;93679.75;5093728;28;20576;-59
2022/10/24 07:57:17;;;;;;;1999.90;999.90;;;;;;;15.20;100.00;93683.28;5094156;28;20176;-60
2022/10/24 07:59:42;;;;;;;1999.90;999.90;;;;;;;15.19;100.00;93679.75;5093693;28;20259;-60
2022/10/24 08:02:12;;;;;;;1999.90;999.90;;;;;;;15.23;100.00;93679.59;5094235;28;20269;-60
2022/10/24 08:04:38;;;;;;;1999.90;999.90;;;;;;;15.21;100.00;93680.06;5093586;28;20202;-59
2022/10/24 08:07:11;;;;;;;1999.90;999.90;;;;;;;15.21;100.00;93691.06;5093714;28;20211;-60
2022/10/24 08:09:38;;;;;;;1999.90;999.90;;;;;;;15.16;100.00;93691.69;5094095;28;20177;-58
2022/10/24 08:12:03;;;;;;;1999.90;999.90;;;;;;;15.19;100.00;93693.50;5093389;28;20173;-58
2022/10/24 08:14:28;;;;;;;1999.90;999.90;;;;;;;15.16;100.00;93688.94;5093569;28;20199;-58
2022/10/24 08:16:54;;;;;;;1999.90;999.90;;;;;;;15.15;100.00;93689.44;5093798;28;20176;-58
2022/10/24 08:19:19;;;;;;;1999.90;999.90;;;;;;;15.09;100.00;93692.09;5093668;28;20233;-58
2022/10/24 08:21:45;;;;;;;1999.90;999.90;;;;;;;15.10;100.00;93682.63;5093309;28;20198;-59
2022/10/24 08:24:10;;;;;;;1999.90;999.90;;;;;;;15.13;100.00;93678.91;5094235;28;20181;-60
2022/10/24 08:26:39;;;;;;;1999.90;999.90;;;;;;;15.15;100.00;93670.94;5093108;28;20216;-58
2022/10/24 08:29:09;;;;;;;1999.90;999.90;;;;;;;15.20;100.00;93669.53;5093444;28;20182;-62
2022/10/24 08:31:35;;;;;;;1999.90;999.90;;;;;;;15.21;100.00;93671.81;5093982;28;20183;-63
2022/10/24 08:34:00;;;;;;;1999.90;999.90;;;;;;;15.24;100.00;93670.84;5093345;28;20173;-62
2022/10/24 08:36:31;;;;;;;1999.90;999.90;;;;;;;15.20;100.00;93667.53;5093811;28;20188;-62
2022/10/24 08:38:57;;;;;;;1999.90;999.90;;;;;;;15.23;100.00;93661.06;5093514;28;20181;-62
2022/10/24 08:41:29;;;;;;;1999.90;999.90;;;;;;;15.30;100.00;93666.19;5093925;28;20181;-62
2022/10/24 08:43:57;;;;;;;1999.90;999.90;;;;;;;15.38;100.00;93664.63;5095041;28;20169;-58
2022/10/24 08:46:44;;;;;;;1999.90;999.90;;;;;;;15.40;100.00;93667.63;5096977;28;20621;-69
2022/10/24 08:49:16;;;;;;;1999.90;999.90;;;;;;;15.44;100.00;93668.22;5097962;28;20179;-68
2022/10/24 08:51:46;;;;;;;1999.90;999.90;;;;;;;15.43;100.00;93666.69;5097264;28;20260;-69
2022/10/24 08:54:16;;;;;;;1999.90;999.90;;;;;;;15.39;100.00;93688.16;5097876;28;20317;-68
2022/10/24 08:56:42;;;;;;;1999.90;999.90;;;;;;;15.43;100.00;93677.69;5097047;28;20187;-69
2022/10/24 08:59:11;;;;;;;1999.90;999.90;;;;;;;15.42;100.00;93687.19;5097639;28;20175;-70
2022/10/24 09:01:43;;;;;;;1999.90;999.90;;;;;;;15.34;100.00;93701.78;5097084;28;20267;-68
2022/10/24 09:04:12;;;;;;;1999.90;999.90;;;;;;;15.40;100.00;93695.16;5096685;28;20207;-59
2022/10/24 09:06:38;;;;;;;1999.90;999.90;;;;;;;15.38;100.00;93705.88;5096598;28;20728;-59
2022/10/24 09:09:12;;;;;;;1999.90;999.90;;;;;;;15.43;100.00;93699.72;5097085;28;20257;-58
2022/10/24 09:11:54;;;;;;;1999.90;999.90;;;;;;;15.33;100.00;93706.50;5096900;28;20183;-58
2022/10/24 09:14:27;;;;;;;1999.90;999.90;;;;;;;15.43;100.00;93698.94;5096825;28;20177;-58
2022/10/24 09:16:57;;;;;;;1999.90;999.90;;;;;;;15.45;100.00;93697.22;5096935;28;20188;-58
2022/10/24 09:19:25;;;;;;;1999.90;999.90;;;;;;;15.44;100.00;93698.47;5096669;28;20168;-58
2022/10/24 09:21:53;;;;;;;1999.90;999.90;;;;;;;15.46;100.00;93676.75;5096348;28;20172;-58
2022/10/24 09:24:19;;;;;;;1999.90;999.90;;;;;;;15.49;100.00;93670.31;5097182;28;20268;-58
2022/10/24 09:26:44;;;;;;;1999.90;999.90;;;;;;;15.54;100.00;93666.09;5097123;28;20291;-58
2022/10/24 09:29:10;;;;;;;1999.90;999.90;;;;;;;15.66;100.00;93656.81;5097169;28;20183;-58
2022/10/24 09:31:36;;;;;;;1999.90;999.90;;;;;;;15.72;100.00;93644.63;5096560;28;20184;-58
2022/10/24 09:34:02;;;;;;;1999.90;999.90;;;;;;;15.79;100.00;93643.47;5096406;28;20177;-59
2022/10/24 09:36:29;;;;;;;1999.90;999.90;;;;;;;15.81;100.00;93646.50;5097360;28;20168;-58
2022/10/24 09:38:54;;;;;;;1999.90;999.90;;;;;;;15.79;100.00;93638.72;5096762;28;20180;-62
2022/10/24 09:41:26;;;;;;;1999.90;999.90;;;;;;;15.76;100.00;93639.69;5096656;28;20176;-69
2022/10/24 09:43:54;;;;;;;1999.90;999.90;;;;;;;15.68;100.00;93640.56;5096248;28;20641;-68
2022/10/24 09:46:43;;;;;;;1999.90;999.90;;;;;;;15.72;100.00;93639.13;5095885;28;20176;-68
2022/10/24 09:49:12;;;;;;;1999.90;999.90;;;;;;;15.76;100.00;93633.41;5096743;28;20169;-68
2022/10/24 09:51:44;;;;;;;1999.90;999.90;;;;;;;15.84;100.00;93631.75;5096429;28;20176;-68
2022/10/24 09:54:18;;;;;;;1999.90;999.90;;;;;;;15.90;100.00;93611.34;5095850;28;20169;-68
2022/10/24 09:56:47;;;;;;;1999.90;999.90;;;;;;;16.00;100.00;93609.97;5095284;28;20628;-57
2022/10/24 09:59:15;;;;;;;1999.90;999.90;;;;;;;16.11;100.00;93599.09;5096945;28;20173;-63
2022/10/24 10:01:41;;;;;;;1999.90;999.90;;;;;;;16.03;100.00;93597.25;5095682;28;20184;-63
2022/10/24 10:04:15;;;;;;;1999.90;999.90;;;;;;;16.01;100.00;93594.97;5096352;28;20196;-62
2022/10/24 10:06:49;;;;;;;1999.90;999.90;;;;;;;15.94;100.00;93614.66;5096193;28;20207;-62
2022/10/24 10:09:24;;;;;;;1999.90;999.90;;;;;;;15.98;100.00;93604.19;5095622;28;20246;-62
2022/10/24 10:11:57;;;;;;;1999.90;999.90;;;;;;;15.99;100.00;93602.94;5096324;28;20176;-62
2022/10/24 10:14:27;;;;;;;1999.90;999.90;;;;;;;15.95;100.00;93613.41;5095694;28;20184;-67
2022/10/24 10:17:06;;;;;;;1999.90;999.90;;;;;;;15.87;100.00;93622.56;5096192;28;20176;-58
2022/10/24 10:19:36;;;;;;;1999.90;999.90;;;;;;;15.74;100.00;93625.63;5094966;28;20176;-68
2022/10/24 10:22:04;;;;;;;1999.90;999.90;;;;;;;15.73;100.00;93618.63;5095341;28;20216;-68
2022/10/24 10:24:44;;;;;;;1999.90;999.90;;;;;;;15.73;100.00;93573.81;5095689;28;20172;-69
2022/10/24 10:27:35;;;;;;;1999.90;999.90;;;;;;;15.64;100.00;93533.44;5095298;28;20196;-68
2022/10/24 10:30:15;;;;;;;1999.90;999.90;;;;;;;15.65;100.00;93529.44;5095887;28;20199;-70
2022/10/24 10:32:43;;;;;;;1999.90;999.90;;;;;;;15.69;100.00;93524.47;5096007;28;20169;-61
2022/10/24 10:35:38;;;;;;;1999.90;999.90;;;;;;;15.74;100.00;93523.03;5095081;28;20180;-62
2022/10/24 10:38:24;;;;;;;1999.90;999.90;;;;;;;15.72;100.00;93531.00;5092612;28;20184;-63
2022/10/24 10:41:02;;;;;;;1999.90;999.90;;;;;;;15.75;100.00;93528.06;5094892;28;20184;-62
2022/10/24 10:43:30;;;;;;;1999.90;999.90;;;;;;;15.77;100.00;93544.84;5095114;28;20172;-62
2022/10/24 10:46:33;;;;;;;1999.90;999.90;;;;;;;15.79;100.00;93545.13;5095098;28;20254;-62
2022/10/24 10:49:07;;;;;;;1999.90;999.90;;;;;;;15.79;100.00;93542.38;5095835;28;20601;-62
2022/10/24 10:51:43;;;;;;;1999.90;999.90;;;;;;;15.79;100.00;93531.38;5094806;28;20258;-58
2022/10/24 10:54:27;;;;;;;1999.90;999.90;;;;;;;15.75;100.00;93532.81;5095376;28;20172;-61